sensor_id;sensor_type;location;lat;lon;timestamp;temperature;humidity
20858;DHT22;10589;53.636;10.012;2023-06-14T03:45:59;12.60;99.90
20858;DHT22;10589;53.636;10.012;2023-06-14T03:48:25;12.60;99.90
20858;DHT22;10589;53.636;10.012;2023-06-14T03:50:51;12.70;99.90
20858;DHT22;10589;53.636;10.012;2023-06-14T03:53:16;12.70;99.90
20858;DHT22;10589;53.636;10.012;2023-06-14T03:55:42;12.70;99.90
20858;DHT22;10589;53.636;10.012;2023-06-14T03:58:08;12.70;99.90
20858;DHT22;10589;53.636;10.012;2023-06-14T04:00:33;12.80;99.90
20858;DHT22;10589;53.636;10.012;2023-06-14T04:02:59;12.80;99.90
20858;DHT22;10589;53.636;10.012;2023-06-14T04:05:25;12.80;99.90
20858;DHT22;10589;53.636;10.012;2023-06-14T04:07:51;12.90;99.90
20858;DHT22;10589;53.636;10.012;2023-06-14T04:10:17;12.90;99.90
20858;DHT22;10589;53.636;10.012;2023-06-14T04:12:43;13.00;99.90
20858;DHT22;10589;53.636;10.012;2023-06-14T04:15:09;13.00;99.90
20858;DHT22;10589;53.636;10.012;2023-06-14T04:17:36;13.10;99.90
20858;DHT22;10589;53.636;10.012;2023-06-14T04:20:02;13.10;99.90
20858;DHT22;10589;53.636;10.012;2023-06-14T04:22:33;13.20;99.90
20858;DHT22;10589;53.636;10.012;2023-06-14T04:24:59;13.20;99.90
20858;DHT22;10589;53.636;10.012;2023-06-14T04:27:26;13.30;99.90
20858;DHT22;10589;53.636;10.012;2023-06-14T04:29:53;13.40;99.90
20858;DHT22;10589;53.636;10.012;2023-06-14T04:32:28;13.40;99.90
20858;DHT22;10589;53.636;10.012;2023-06-14T04:34:58;13.50;99.90
20858;DHT22;10589;53.636;10.012;2023-06-14T04:37:25;13.60;99.90
20858;DHT22;10589;53.636;10.012;2023-06-14T04:39:54;13.70;99.90
20858;DHT22;10589;53.636;10.012;2023-06-14T04:42:21;13.80;99.90
20858;DHT22;10589;53.636;10.012;2023-06-14T04:44:50;13.80;99.90
20858;DHT22;10589;53.636;10.012;2023-06-14T04:47:17;13.90;99.90
20858;DHT22;10589;53.636;10.012;2023-06-14T04:49:42;14.00;99.90
20858;DHT22;10589;53.636;10.012;2023-06-14T04:52:08;14.00;99.90
20858;DHT22;10589;53.636;10.012;2023-06-14T04:54:36;14.10;99.90
20858;DHT22;10589;53.636;10.012;2023-06-14T04:57:07;14.20;99.90
20858;DHT22;10589;53.636;10.012;2023-06-14T04:59:34;14.30;99.90
20858;DHT22;10589;53.636;10.012;2023-06-14T05:02:01;14.30;99.90
20858;DHT22;10589;53.636;10.012;2023-06-14T05:04:26;14.40;99.90
20858;DHT22;10589;53.636;10.012;2023-06-14T05:06:53;14.50;99.90
20858;DHT22;10589;53.636;10.012;2023-06-14T05:09:20;14.50;99.90
20858;DHT22;10589;53.636;10.012;2023-06-14T05:11:46;14.50;99.90
20858;DHT22;10589;53.636;10.012;2023-06-14T05:14:13;14.70;99.90
20858;DHT22;10589;53.636;10.012;2023-06-14T05:16:40;14.70;99.90
20858;DHT22;10589;53.636;10.012;2023-06-14T05:19:06;14.80;99.90
20858;DHT22;10589;53.636;10.012;2023-06-14T05:21:33;14.90;99.90
20858;DHT22;10589;53.636;10.012;2023-06-14T05:24:01;15.00;99.90
20858;DHT22;10589;53.636;10.012;2023-06-14T05:26:27;15.10;99.90
20858;DHT22;10589;53.636;10.012;2023-06-14T05:28:56;15.10;99.90
20858;DHT22;10589;53.636;10.012;2023-06-14T05:31:22;15.20;99.90
20858;DHT22;10589;53.636;10.012;2023-06-14T05:33:49;15.30;99.90
20858;DHT22;10589;53.636;10.012;2023-06-14T05:36:15;15.40;99.90
20858;DHT22;10589;53.636;10.012;2023-06-14T05:38:41;15.40;99.90
20858;DHT22;10589;53.636;10.012;2023-06-14T05:41:06;15.50;99.90
20858;DHT22;10589;53.636;10.012;2023-06-14T05:43:32;15.60;99.90
20858;DHT22;10589;53.636;10.012;2023-06-14T05:45:57;15.60;99.90
20858;DHT22;10589;53.636;10.012;2023-06-14T05:48:23;15.70;99.90
20858;DHT22;10589;53.636;10.012;2023-06-14T05:50:48;15.80;99.90
20858;DHT22;10589;53.636;10.012;2023-06-14T05:53:14;15.90;99.90
20858;DHT22;10589;53.636;10.012;2023-06-14T05:55:40;16.00;99.90
20858;DHT22;10589;53.636;10.012;2023-06-14T05:58:06;16.00;99.90
20858;DHT22;10589;53.636;10.012;2023-06-14T06:00:31;16.10;99.90
20858;DHT22;10589;53.636;10.012;2023-06-14T06:02:57;16.20;99.90
20858;DHT22;10589;53.636;10.012;2023-06-14T06:05:23;16.30;99.90
20858;DHT22;10589;53.636;10.012;2023-06-14T06:07:49;16.40;99.90
20858;DHT22;10589;53.636;10.012;2023-06-14T06:10:15;16.50;99.90
20858;DHT22;10589;53.636;10.012;2023-06-14T06:12:42;16.50;99.90
20858;DHT22;10589;53.636;10.012;2023-06-14T06:15:08;16.60;99.90
20858;DHT22;10589;53.636;10.012;2023-06-14T06:17:37;16.70;99.90
20858;DHT22;10589;53.636;10.012;2023-06-14T06:20:04;16.80;99.90
20858;DHT22;10589;53.636;10.012;2023-06-14T06:22:31;16.90;99.90
20858;DHT22;10589;53.636;10.012;2023-06-14T06:24:57;17.00;99.90
20858;DHT22;10589;53.636;10.012;2023-06-14T06:27:22;17.20;99.90
20858;DHT22;10589;53.636;10.012;2023-06-14T06:29:48;17.20;99.90
20858;DHT22;10589;53.636;10.012;2023-06-14T06:32:15;17.30;99.90
20858;DHT22;10589;53.636;10.012;2023-06-14T06:34:41;17.40;99.90
20858;DHT22;10589;53.636;10.012;2023-06-14T06:37:06;17.50;99.90
20858;DHT22;10589;53.636;10.012;2023-06-14T06:39:33;17.60;99.90
20858;DHT22;10589;53.636;10.012;2023-06-14T06:41:58;17.70;99.90
20858;DHT22;10589;53.636;10.012;2023-06-14T06:44:24;17.80;99.90
20858;DHT22;10589;53.636;10.012;2023-06-14T06:46:49;17.90;99.90
20858;DHT22;10589;53.636;10.012;2023-06-14T06:49:15;18.00;99.90
20858;DHT22;10589;53.636;10.012;2023-06-14T06:51:41;18.10;99.90
20858;DHT22;10589;53.636;10.012;2023-06-14T06:54:08;18.20;99.90
20858;DHT22;10589;53.636;10.012;2023-06-14T06:56:34;18.30;99.90
20858;DHT22;10589;53.636;10.012;2023-06-14T06:59:00;18.50;99.90
20858;DHT22;10589;53.636;10.012;2023-06-14T07:01:26;18.60;99.90
20858;DHT22;10589;53.636;10.012;2023-06-14T07:03:54;18.70;99.90
20858;DHT22;10589;53.636;10.012;2023-06-14T07:06:21;18.80;99.90
20858;DHT22;10589;53.636;10.012;2023-06-14T07:08:46;18.90;99.90
20858;DHT22;10589;53.636;10.012;2023-06-14T07:11:14;19.00;99.90
20858;DHT22;10589;53.636;10.012;2023-06-14T07:13:39;19.10;99.90
20858;DHT22;10589;53.636;10.012;2023-06-14T07:16:05;19.10;99.90
20858;DHT22;10589;53.636;10.012;2023-06-14T07:18:31;19.20;99.90
20858;DHT22;10589;53.636;10.012;2023-06-14T07:20:57;19.20;99.90
20858;DHT22;10589;53.636;10.012;2023-06-14T07:23:23;19.40;99.90
20858;DHT22;10589;53.636;10.012;2023-06-14T07:25:49;19.50;99.90
20858;DHT22;10589;53.636;10.012;2023-06-14T07:28:17;19.60;99.90
20858;DHT22;10589;53.636;10.012;2023-06-14T07:30:43;19.70;99.90
20858;DHT22;10589;53.636;10.012;2023-06-14T07:33:09;19.80;99.90
20858;DHT22;10589;53.636;10.012;2023-06-14T07:35:36;20.00;99.90
20858;DHT22;10589;53.636;10.012;2023-06-14T07:38:02;20.00;99.90
20858;DHT22;10589;53.636;10.012;2023-06-14T07:40:27;20.00;99.90
20858;DHT22;10589;53.636;10.012;2023-06-14T07:42:54;20.10;99.90
20858;DHT22;10589;53.636;10.012;2023-06-14T07:45:20;20.20;99.90
20858;DHT22;10589;53.636;10.012;2023-06-14T07:47:46;20.40;99.90
20858;DHT22;10589;53.636;10.012;2023-06-14T07:50:12;20.50;99.90
20858;DHT22;10589;53.636;10.012;2023-06-14T07:52:39;20.60;99.90
20858;DHT22;10589;53.636;10.012;2023-06-14T07:55:05;20.60;99.90
20858;DHT22;10589;53.636;10.012;2023-06-14T07:57:31;20.70;99.90
20858;DHT22;10589;53.636;10.012;2023-06-14T07:59:57;20.80;99.90
20858;DHT22;10589;53.636;10.012;2023-06-14T08:02:22;20.80;99.90
20858;DHT22;10589;53.636;10.012;2023-06-14T08:04:48;20.90;99.90
20858;DHT22;10589;53.636;10.012;2023-06-14T08:07:14;21.00;99.90
20858;DHT22;10589;53.636;10.012;2023-06-14T08:09:40;21.10;99.90
20858;DHT22;10589;53.636;10.012;2023-06-14T08:12:06;21.10;99.90
20858;DHT22;10589;53.636;10.012;2023-06-14T08:14:35;21.10;99.90
20858;DHT22;10589;53.636;10.012;2023-06-14T08:17:01;21.00;99.90
20858;DHT22;10589;53.636;10.012;2023-06-14T08:19:26;21.20;99.90
20858;DHT22;10589;53.636;10.012;2023-06-14T08:21:52;21.40;99.90
20858;DHT22;10589;53.636;10.012;2023-06-14T08:24:21;21.50;99.90
20858;DHT22;10589;53.636;10.012;2023-06-14T08:26:50;21.40;99.90
20858;DHT22;10589;53.636;10.012;2023-06-14T08:29:15;21.60;99.90
20858;DHT22;10589;53.636;10.012;2023-06-14T08:31:41;21.70;99.90
20858;DHT22;10589;53.636;10.012;2023-06-14T08:34:07;21.80;99.90
20858;DHT22;10589;53.636;10.012;2023-06-14T08:36:32;21.90;99.90
20858;DHT22;10589;53.636;10.012;2023-06-14T08:38:58;22.10;99.90
20858;DHT22;10589;53.636;10.012;2023-06-14T08:41:24;22.20;99.90
20858;DHT22;10589;53.636;10.012;2023-06-14T08:43:50;22.20;99.90
20858;DHT22;10589;53.636;10.012;2023-06-14T08:46:18;22.30;99.90
20858;DHT22;10589;53.636;10.012;2023-06-14T08:48:51;22.40;99.90
20858;DHT22;10589;53.636;10.012;2023-06-14T08:51:18;22.20;99.90
20858;DHT22;10589;53.636;10.012;2023-06-14T08:53:45;22.10;99.90
20858;DHT22;10589;53.636;10.012;2023-06-14T08:56:14;22.20;99.90
20858;DHT22;10589;53.636;10.012;2023-06-14T08:58:44;22.30;99.90
20858;DHT22;10589;53.636;10.012;2023-06-14T09:01:11;22.30;99.90
20858;DHT22;10589;53.636;10.012;2023-06-14T09:03:43;22.40;99.90
20858;DHT22;10589;53.636;10.012;2023-06-14T09:06:10;22.40;99.90
20858;DHT22;10589;53.636;10.012;2023-06-14T09:08:43;22.10;99.90
20858;DHT22;10589;53.636;10.012;2023-06-14T09:11:13;22.40;99.90
20858;DHT22;10589;53.636;10.012;2023-06-14T09:13:39;22.40;99.90
20858;DHT22;10589;53.636;10.012;2023-06-14T09:16:06;22.60;99.90
20858;DHT22;10589;53.636;10.012;2023-06-14T09:18:43;22.90;99.90
20858;DHT22;10589;53.636;10.012;2023-06-14T09:21:10;23.00;99.90
20858;DHT22;10589;53.636;10.012;2023-06-14T09:23:40;22.90;99.90
20858;DHT22;10589;53.636;10.012;2023-06-14T09:31:11;23.40;99.90
20858;DHT22;10589;53.636;10.012;2023-06-14T09:33:37;23.40;99.90
20858;DHT22;10589;53.636;10.012;2023-06-14T09:36:09;23.40;99.90
20858;DHT22;10589;53.636;10.012;2023-06-14T09:38:35;23.20;99.90
20858;DHT22;10589;53.636;10.012;2023-06-14T09:41:03;23.20;99.90
20858;DHT22;10589;53.636;10.012;2023-06-14T09:43:29;23.40;99.90
20858;DHT22;10589;53.636;10.012;2023-06-14T09:45:55;23.40;99.90
20858;DHT22;10589;53.636;10.012;2023-06-14T09:48:21;23.30;99.90
20858;DHT22;10589;53.636;10.012;2023-06-14T09:50:50;23.40;99.90
20858;DHT22;10589;53.636;10.012;2023-06-14T09:53:21;23.30;99.90
20858;DHT22;10589;53.636;10.012;2023-06-14T09:55:52;23.70;99.90
20858;DHT22;10589;53.636;10.012;2023-06-14T09:58:23;23.60;99.90
20858;DHT22;10589;53.636;10.012;2023-06-14T10:00:54;23.80;99.90
20858;DHT22;10589;53.636;10.012;2023-06-14T10:03:25;23.80;99.90
20858;DHT22;10589;53.636;10.012;2023-06-14T10:05:53;23.70;99.90
20858;DHT22;10589;53.636;10.012;2023-06-14T10:08:25;23.90;99.90
20858;DHT22;10589;53.636;10.012;2023-06-14T10:10:55;23.80;99.90
20858;DHT22;10589;53.636;10.012;2023-06-14T10:13:22;23.70;99.90
20858;DHT22;10589;53.636;10.012;2023-06-14T10:15:58;23.70;99.90
20858;DHT22;10589;53.636;10.012;2023-06-14T10:23:22;24.50;99.90
20858;DHT22;10589;53.636;10.012;2023-06-14T10:25:56;24.60;99.90
20858;DHT22;10589;53.636;10.012;2023-06-14T10:28:22;24.80;99.90
20858;DHT22;10589;53.636;10.012;2023-06-14T10:33:35;24.80;99.90
20858;DHT22;10589;53.636;10.012;2023-06-14T10:36:26;24.70;99.90
20858;DHT22;10589;53.636;10.012;2023-06-14T10:39:05;24.20;99.90
20858;DHT22;10589;53.636;10.012;2023-06-14T10:41:35;23.90;99.90
20858;DHT22;10589;53.636;10.012;2023-06-14T10:46:54;23.80;99.90
20858;DHT22;10589;53.636;10.012;2023-06-14T10:52:04;24.00;99.90
20858;DHT22;10589;53.636;10.012;2023-06-14T10:54:31;24.00;99.90
20858;DHT22;10589;53.636;10.012;2023-06-14T10:56:58;24.20;99.90
20858;DHT22;10589;53.636;10.012;2023-06-14T10:59:24;24.50;99.90
20858;DHT22;10589;53.636;10.012;2023-06-14T11:04:52;25.40;99.90
20858;DHT22;10589;53.636;10.012;2023-06-14T11:10:09;25.90;99.90
20858;DHT22;10589;53.636;10.012;2023-06-14T11:12:39;25.30;99.90
20858;DHT22;10589;53.636;10.012;2023-06-14T11:15:08;24.50;99.90
20858;DHT22;10589;53.636;10.012;2023-06-14T11:17:34;24.30;99.90
20858;DHT22;10589;53.636;10.012;2023-06-14T11:20:12;24.20;99.90
20858;DHT22;10589;53.636;10.012;2023-06-14T11:22:42;24.70;99.90
20858;DHT22;10589;53.636;10.012;2023-06-14T11:25:14;25.10;99.90
20858;DHT22;10589;53.636;10.012;2023-06-14T11:27:42;25.40;99.90
20858;DHT22;10589;53.636;10.012;2023-06-14T11:30:08;25.40;99.90
20858;DHT22;10589;53.636;10.012;2023-06-14T11:32:35;25.60;99.90
20858;DHT22;10589;53.636;10.012;2023-06-14T11:35:01;25.20;99.90
20858;DHT22;10589;53.636;10.012;2023-06-14T11:37:28;25.40;99.90
20858;DHT22;10589;53.636;10.012;2023-06-14T11:39:57;25.20;99.90
20858;DHT22;10589;53.636;10.012;2023-06-14T11:42:24;24.80;99.90
20858;DHT22;10589;53.636;10.012;2023-06-14T11:44:50;24.60;99.90
20858;DHT22;10589;53.636;10.012;2023-06-14T11:47:15;24.70;99.90
20858;DHT22;10589;53.636;10.012;2023-06-14T11:49:41;24.70;99.90
20858;DHT22;10589;53.636;10.012;2023-06-14T11:52:07;25.00;99.90
20858;DHT22;10589;53.636;10.012;2023-06-14T11:54:33;24.90;99.90
20858;DHT22;10589;53.636;10.012;2023-06-14T11:56:59;24.70;99.90
20858;DHT22;10589;53.636;10.012;2023-06-14T11:59:25;25.00;99.90
20858;DHT22;10589;53.636;10.012;2023-06-14T12:01:52;25.70;99.90
20858;DHT22;10589;53.636;10.012;2023-06-14T12:04:29;26.10;99.90
20858;DHT22;10589;53.636;10.012;2023-06-14T12:06:55;25.60;99.90
20858;DHT22;10589;53.636;10.012;2023-06-14T12:09:21;24.80;99.90
20858;DHT22;10589;53.636;10.012;2023-06-14T12:11:49;25.00;99.90
20858;DHT22;10589;53.636;10.012;2023-06-14T12:14:15;25.00;99.90
20858;DHT22;10589;53.636;10.012;2023-06-14T12:16:42;25.30;99.90
20858;DHT22;10589;53.636;10.012;2023-06-14T12:19:12;25.30;99.90
20858;DHT22;10589;53.636;10.012;2023-06-14T12:21:38;25.10;99.90
20858;DHT22;10589;53.636;10.012;2023-06-14T12:24:06;24.80;99.90
20858;DHT22;10589;53.636;10.012;2023-06-14T12:26:32;25.10;99.90
20858;DHT22;10589;53.636;10.012;2023-06-14T12:28:59;25.60;99.90
20858;DHT22;10589;53.636;10.012;2023-06-14T12:31:25;25.90;99.90
20858;DHT22;10589;53.636;10.012;2023-06-14T12:33:52;26.20;99.90
20858;DHT22;10589;53.636;10.012;2023-06-14T12:36:17;26.20;99.90
20858;DHT22;10589;53.636;10.012;2023-06-14T12:38:44;26.40;99.90
20858;DHT22;10589;53.636;10.012;2023-06-14T12:41:11;26.80;99.90
20858;DHT22;10589;53.636;10.012;2023-06-14T12:43:39;27.90;99.90
20858;DHT22;10589;53.636;10.012;2023-06-14T12:46:05;28.70;99.30
20858;DHT22;10589;53.636;10.012;2023-06-14T12:48:31;29.10;97.60
20858;DHT22;10589;53.636;10.012;2023-06-14T12:50:57;28.60;98.80
20858;DHT22;10589;53.636;10.012;2023-06-14T12:53:23;28.10;98.10
20858;DHT22;10589;53.636;10.012;2023-06-14T12:55:49;28.20;98.20
20858;DHT22;10589;53.636;10.012;2023-06-14T12:58:15;28.70;98.60
20858;DHT22;10589;53.636;10.012;2023-06-14T13:00:43;29.50;98.10
20858;DHT22;10589;53.636;10.012;2023-06-14T13:03:10;30.50;94.40
20858;DHT22;10589;53.636;10.012;2023-06-14T13:05:35;31.80;94.00
20858;DHT22;10589;53.636;10.012;2023-06-14T13:08:02;31.30;92.40
20858;DHT22;10589;53.636;10.012;2023-06-14T13:10:28;32.20;92.70
20858;DHT22;10589;53.636;10.012;2023-06-14T13:12:53;32.10;92.10
20858;DHT22;10589;53.636;10.012;2023-06-14T13:15:19;30.70;91.90
20858;DHT22;10589;53.636;10.012;2023-06-14T13:17:45;30.00;92.00
20858;DHT22;10589;53.636;10.012;2023-06-14T13:20:14;30.40;93.00
20858;DHT22;10589;53.636;10.012;2023-06-14T13:22:40;31.50;92.40
20858;DHT22;10589;53.636;10.012;2023-06-14T13:25:06;32.40;90.50
20858;DHT22;10589;53.636;10.012;2023-06-14T13:27:32;32.60;89.90
20858;DHT22;10589;53.636;10.012;2023-06-14T13:29:58;32.10;88.00
20858;DHT22;10589;53.636;10.012;2023-06-14T13:32:23;31.80;88.20
20858;DHT22;10589;53.636;10.012;2023-06-14T13:34:49;31.70;89.40
20858;DHT22;10589;53.636;10.012;2023-06-14T13:37:15;32.20;86.20
20858;DHT22;10589;53.636;10.012;2023-06-14T13:39:40;32.90;85.20
20858;DHT22;10589;53.636;10.012;2023-06-14T13:42:06;33.20;83.00
20858;DHT22;10589;53.636;10.012;2023-06-14T13:44:32;34.10;82.30
20858;DHT22;10589;53.636;10.012;2023-06-14T13:46:57;33.60;80.70
20858;DHT22;10589;53.636;10.012;2023-06-14T13:49:23;34.20;81.70
20858;DHT22;10589;53.636;10.012;2023-06-14T13:51:49;32.80;79.70
20858;DHT22;10589;53.636;10.012;2023-06-14T13:54:14;31.80;82.10
20858;DHT22;10589;53.636;10.012;2023-06-14T13:56:44;31.70;83.60
20858;DHT22;10589;53.636;10.012;2023-06-14T13:59:09;32.20;82.50
20858;DHT22;10589;53.636;10.012;2023-06-14T14:01:36;33.00;80.90
20858;DHT22;10589;53.636;10.012;2023-06-14T14:04:01;33.50;83.10
20858;DHT22;10589;53.636;10.012;2023-06-14T14:06:34;34.00;79.40
20858;DHT22;10589;53.636;10.012;2023-06-14T14:09:00;32.40;80.20
20858;DHT22;10589;53.636;10.012;2023-06-14T14:11:26;30.50;79.70
20858;DHT22;10589;53.636;10.012;2023-06-14T14:13:53;28.90;82.50
20858;DHT22;10589;53.636;10.012;2023-06-14T14:16:19;27.60;85.70
20858;DHT22;10589;53.636;10.012;2023-06-14T14:18:46;27.30;86.50
20858;DHT22;10589;53.636;10.012;2023-06-14T14:21:11;29.00;87.90
20858;DHT22;10589;53.636;10.012;2023-06-14T14:23:37;31.20;83.20
20858;DHT22;10589;53.636;10.012;2023-06-14T14:26:02;31.90;80.50
20858;DHT22;10589;53.636;10.012;2023-06-14T14:28:30;32.70;79.20
20858;DHT22;10589;53.636;10.012;2023-06-14T14:30:56;33.10;78.40
20858;DHT22;10589;53.636;10.012;2023-06-14T14:33:22;33.50;77.10
20858;DHT22;10589;53.636;10.012;2023-06-14T14:35:47;34.00;76.20
20858;DHT22;10589;53.636;10.012;2023-06-14T14:38:14;33.90;75.90
20858;DHT22;10589;53.636;10.012;2023-06-14T14:40:41;34.20;76.40
20858;DHT22;10589;53.636;10.012;2023-06-14T14:43:07;35.50;76.30
20858;DHT22;10589;53.636;10.012;2023-06-14T14:45:32;35.40;71.70
20858;DHT22;10589;53.636;10.012;2023-06-14T14:47:59;34.00;73.10
20858;DHT22;10589;53.636;10.012;2023-06-14T14:50:25;34.00;72.70
20858;DHT22;10589;53.636;10.012;2023-06-14T14:52:51;35.00;74.80
20858;DHT22;10589;53.636;10.012;2023-06-14T14:55:16;35.30;72.90
20858;DHT22;10589;53.636;10.012;2023-06-14T14:57:43;33.80;72.10
20858;DHT22;10589;53.636;10.012;2023-06-14T15:00:09;32.80;71.90
20858;DHT22;10589;53.636;10.012;2023-06-14T15:02:35;30.90;75.50
20858;DHT22;10589;53.636;10.012;2023-06-14T15:05:01;29.20;76.00
20858;DHT22;10589;53.636;10.012;2023-06-14T15:07:28;27.70;80.00
20858;DHT22;10589;53.636;10.012;2023-06-14T15:09:54;28.00;80.70
20858;DHT22;10589;53.636;10.012;2023-06-14T15:12:20;29.20;80.10
20858;DHT22;10589;53.636;10.012;2023-06-14T15:14:51;31.00;76.50
20858;DHT22;10589;53.636;10.012;2023-06-14T15:17:20;31.80;75.10
20858;DHT22;10589;53.636;10.012;2023-06-14T15:19:47;32.30;74.20
20858;DHT22;10589;53.636;10.012;2023-06-14T15:22:13;32.10;72.80
20858;DHT22;10589;53.636;10.012;2023-06-14T15:24:40;31.90;73.70
20858;DHT22;10589;53.636;10.012;2023-06-14T15:27:06;32.30;73.30
20858;DHT22;10589;53.636;10.012;2023-06-14T15:29:31;32.10;73.40
20858;DHT22;10589;53.636;10.012;2023-06-14T15:31:57;32.30;74.80
20858;DHT22;10589;53.636;10.012;2023-06-14T15:34:23;33.30;74.10
20858;DHT22;10589;53.636;10.012;2023-06-14T15:36:49;34.10;72.50
20858;DHT22;10589;53.636;10.012;2023-06-14T15:39:15;34.00;70.10
20858;DHT22;10589;53.636;10.012;2023-06-14T15:41:41;34.50;69.40
20858;DHT22;10589;53.636;10.012;2023-06-14T15:44:06;33.80;69.40
20858;DHT22;10589;53.636;10.012;2023-06-14T15:46:33;33.10;69.70
20858;DHT22;10589;53.636;10.012;2023-06-14T15:48:59;33.00;71.20
20858;DHT22;10589;53.636;10.012;2023-06-14T15:51:24;33.60;71.20
20858;DHT22;10589;53.636;10.012;2023-06-14T15:53:50;34.80;73.40
20858;DHT22;10589;53.636;10.012;2023-06-14T15:56:15;34.10;69.60
20858;DHT22;10589;53.636;10.012;2023-06-14T15:58:41;33.50;69.80
20858;DHT22;10589;53.636;10.012;2023-06-14T16:01:06;33.30;68.40
20858;DHT22;10589;53.636;10.012;2023-06-14T16:03:32;32.80;69.50
20858;DHT22;10589;53.636;10.012;2023-06-14T16:05:57;32.80;69.50
20858;DHT22;10589;53.636;10.012;2023-06-14T16:08:23;32.80;70.30
20858;DHT22;10589;53.636;10.012;2023-06-14T16:10:49;32.90;69.90
20858;DHT22;10589;53.636;10.012;2023-06-14T16:13:14;32.90;69.40
20858;DHT22;10589;53.636;10.012;2023-06-14T16:15:40;32.40;69.60
20858;DHT22;10589;53.636;10.012;2023-06-14T16:18:05;32.40;69.80
20858;DHT22;10589;53.636;10.012;2023-06-14T16:20:31;32.00;69.70
20858;DHT22;10589;53.636;10.012;2023-06-14T16:22:56;32.10;69.00
20858;DHT22;10589;53.636;10.012;2023-06-14T16:25:22;31.90;70.20
20858;DHT22;10589;53.636;10.012;2023-06-14T16:27:48;31.80;70.30
20858;DHT22;10589;53.636;10.012;2023-06-14T16:30:13;32.50;71.20
20858;DHT22;10589;53.636;10.012;2023-06-14T16:32:39;32.60;70.20
20858;DHT22;10589;53.636;10.012;2023-06-14T16:35:05;32.80;71.60
20858;DHT22;10589;53.636;10.012;2023-06-14T16:37:31;33.30;68.60
20858;DHT22;10589;53.636;10.012;2023-06-14T16:39:57;32.40;67.50
20858;DHT22;10589;53.636;10.012;2023-06-14T16:42:22;32.00;70.50
20858;DHT22;10589;53.636;10.012;2023-06-14T16:44:49;31.80;70.90
20858;DHT22;10589;53.636;10.012;2023-06-14T16:47:14;32.00;69.30
20858;DHT22;10589;53.636;10.012;2023-06-14T16:49:40;31.90;68.90
20858;DHT22;10589;53.636;10.012;2023-06-14T16:52:06;31.40;68.90
20858;DHT22;10589;53.636;10.012;2023-06-14T16:54:32;31.10;69.50
20858;DHT22;10589;53.636;10.012;2023-06-14T16:56:57;30.60;70.20
20858;DHT22;10589;53.636;10.012;2023-06-14T16:59:23;30.30;70.60
20858;DHT22;10589;53.636;10.012;2023-06-14T17:01:51;30.10;69.80
20858;DHT22;10589;53.636;10.012;2023-06-14T17:04:17;29.90;71.40
20858;DHT22;10589;53.636;10.012;2023-06-14T17:06:43;30.10;70.00
20858;DHT22;10589;53.636;10.012;2023-06-14T17:09:09;29.50;70.30
20858;DHT22;10589;53.636;10.012;2023-06-14T17:11:35;28.70;72.20
20858;DHT22;10589;53.636;10.012;2023-06-14T17:14:01;27.60;73.20
20858;DHT22;10589;53.636;10.012;2023-06-14T17:16:27;26.50;75.10
20858;DHT22;10589;53.636;10.012;2023-06-14T17:18:53;25.50;76.60
20858;DHT22;10589;53.636;10.012;2023-06-14T17:21:18;24.80;78.90
20858;DHT22;10589;53.636;10.012;2023-06-14T17:23:44;24.30;80.00
20858;DHT22;10589;53.636;10.012;2023-06-14T17:26:10;24.00;80.70
20858;DHT22;10589;53.636;10.012;2023-06-14T17:28:35;23.80;81.00
20858;DHT22;10589;53.636;10.012;2023-06-14T17:31:01;23.60;82.60
20858;DHT22;10589;53.636;10.012;2023-06-14T17:33:27;23.50;81.10
20858;DHT22;10589;53.636;10.012;2023-06-14T17:35:53;23.10;82.90
20858;DHT22;10589;53.636;10.012;2023-06-14T17:38:18;22.90;81.90
20858;DHT22;10589;53.636;10.012;2023-06-14T17:40:44;22.80;83.10
20858;DHT22;10589;53.636;10.012;2023-06-14T17:43:10;22.70;81.20
20858;DHT22;10589;53.636;10.012;2023-06-14T17:45:35;22.60;81.40
20858;DHT22;10589;53.636;10.012;2023-06-14T17:48:01;22.50;80.50
20858;DHT22;10589;53.636;10.012;2023-06-14T17:50:27;22.30;81.10
20858;DHT22;10589;53.636;10.012;2023-06-14T17:52:53;22.30;81.20
20858;DHT22;10589;53.636;10.012;2023-06-14T17:55:18;22.20;82.20
20858;DHT22;10589;53.636;10.012;2023-06-14T17:57:44;22.20;83.30
20858;DHT22;10589;53.636;10.012;2023-06-14T18:00:10;22.10;83.20
20858;DHT22;10589;53.636;10.012;2023-06-14T18:02:36;22.00;83.10
20858;DHT22;10589;53.636;10.012;2023-06-14T18:05:01;21.90;83.20
20858;DHT22;10589;53.636;10.012;2023-06-14T18:07:27;21.90;83.30
20858;DHT22;10589;53.636;10.012;2023-06-14T18:09:53;21.80;83.60
20858;DHT22;10589;53.636;10.012;2023-06-14T18:12:19;21.70;83.80
20858;DHT22;10589;53.636;10.012;2023-06-14T18:14:44;21.60;84.20
20858;DHT22;10589;53.636;10.012;2023-06-14T18:17:10;21.50;84.30
20858;DHT22;10589;53.636;10.012;2023-06-14T18:19:35;21.50;84.10
20858;DHT22;10589;53.636;10.012;2023-06-14T18:22:02;21.40;83.40
20858;DHT22;10589;53.636;10.012;2023-06-14T18:24:30;21.30;84.00
20858;DHT22;10589;53.636;10.012;2023-06-14T18:26:55;21.20;83.90
20858;DHT22;10589;53.636;10.012;2023-06-14T18:29:21;21.10;84.70
20858;DHT22;10589;53.636;10.012;2023-06-14T18:31:47;21.00;84.40
20858;DHT22;10589;53.636;10.012;2023-06-14T18:34:12;20.90;85.10
20858;DHT22;10589;53.636;10.012;2023-06-14T18:36:38;20.80;85.00
20858;DHT22;10589;53.636;10.012;2023-06-14T18:39:05;20.80;85.10
20858;DHT22;10589;53.636;10.012;2023-06-14T18:41:31;20.70;86.20
20858;DHT22;10589;53.636;10.012;2023-06-14T18:43:57;20.60;86.00
20858;DHT22;10589;53.636;10.012;2023-06-14T18:46:23;20.50;86.30
20858;DHT22;10589;53.636;10.012;2023-06-14T18:48:48;20.50;86.50
20858;DHT22;10589;53.636;10.012;2023-06-14T18:51:14;20.40;87.20
20858;DHT22;10589;53.636;10.012;2023-06-14T18:53:40;20.40;87.60
20858;DHT22;10589;53.636;10.012;2023-06-14T18:56:06;20.30;87.40
20858;DHT22;10589;53.636;10.012;2023-06-14T18:58:33;20.20;88.10
20858;DHT22;10589;53.636;10.012;2023-06-14T19:00:58;20.10;88.00
20858;DHT22;10589;53.636;10.012;2023-06-14T19:03:25;20.10;87.60
20858;DHT22;10589;53.636;10.012;2023-06-14T19:05:52;20.00;88.00
20858;DHT22;10589;53.636;10.012;2023-06-14T19:08:21;20.00;88.60
20858;DHT22;10589;53.636;10.012;2023-06-14T19:10:47;19.90;89.30
20858;DHT22;10589;53.636;10.012;2023-06-14T19:13:13;19.80;88.80
20858;DHT22;10589;53.636;10.012;2023-06-14T19:15:39;19.70;89.20
20858;DHT22;10589;53.636;10.012;2023-06-14T19:18:05;19.60;90.20
20858;DHT22;10589;53.636;10.012;2023-06-14T19:20:33;19.50;90.00